KMSS

Massena International Airport

Airport
ICAO code
KMSS
Summary
ICAO Region
NAM
ICAO Territory
Location

Massena, New York,

Coordinates
44° 56' 9" N , 74° 50' 44" W
KCC
Airport GND
Aircraft Ground De/Anti Icing
Airport WX
Cumulonimbus
Metar
KMSS 270253Z AUTO 08003KT 10SM CLR M02/M07 A2999 RMK AO2 SLP160 T10221072 58011

Description

Massena International Airport, also known as Richards Field, is a public use airport located 4 km east of the central business district of Massena, a village in St. Lawrence County, New York.

Climatology

Humid Continental climate (Köppen climate classification Dfb) - Variable weather patterns and a large seasonal temperature variance. Summers are often warm and humid with frequent thunderstorms and winters can be very cold with frequent snowfall and persistent snow cover.

Runways

Designator Length Width Surface Rops
9/27 1219 30 ASP No/No
5/23 1523 30 ASP No/No

Airport map

Aerial View

SKYbrary Partners:

Safety knowledge contributed by: